sensor_id;sensor_type;location;lat;lon;timestamp;P1;durP1;ratioP1;P2;durP2;ratioP2
76310;SDS011;65120;59.304;18.294;2022-11-27T00:01:14;3.53;;;2.40;;
76310;SDS011;65120;59.304;18.294;2022-11-27T00:03:44;3.22;;;2.05;;
76310;SDS011;65120;59.304;18.294;2022-11-27T00:06:11;4.20;;;2.10;;
76310;SDS011;65120;59.304;18.294;2022-11-27T00:08:39;3.55;;;1.73;;
76310;SDS011;65120;59.304;18.294;2022-11-27T00:11:07;3.83;;;2.17;;
76310;SDS011;65120;59.304;18.294;2022-11-27T00:13:35;4.45;;;2.13;;
76310;SDS011;65120;59.304;18.294;2022-11-27T00:16:02;2.85;;;1.98;;
76310;SDS011;65120;59.304;18.294;2022-11-27T00:18:30;3.28;;;2.22;;
76310;SDS011;65120;59.304;18.294;2022-11-27T00:21:02;2.38;;;1.92;;
76310;SDS011;65120;59.304;18.294;2022-11-27T00:23:30;3.17;;;1.92;;
76310;SDS011;65120;59.304;18.294;2022-11-27T00:25:57;4.20;;;1.92;;
76310;SDS011;65120;59.304;18.294;2022-11-27T00:28:24;3.92;;;2.20;;
76310;SDS011;65120;59.304;18.294;2022-11-27T00:30:51;4.18;;;2.15;;
76310;SDS011;65120;59.304;18.294;2022-11-27T00:33:17;4.53;;;2.80;;
76310;SDS011;65120;59.304;18.294;2022-11-27T00:35:44;5.95;;;2.78;;
76310;SDS011;65120;59.304;18.294;2022-11-27T00:38:12;4.20;;;1.70;;
76310;SDS011;65120;59.304;18.294;2022-11-27T00:40:39;4.00;;;2.47;;
76310;SDS011;65120;59.304;18.294;2022-11-27T00:43:06;3.75;;;2.38;;
76310;SDS011;65120;59.304;18.294;2022-11-27T00:45:32;3.47;;;2.03;;
76310;SDS011;65120;59.304;18.294;2022-11-27T00:47:59;3.92;;;1.73;;
76310;SDS011;65120;59.304;18.294;2022-11-27T00:50:26;3.00;;;1.98;;
76310;SDS011;65120;59.304;18.294;2022-11-27T00:52:55;3.65;;;1.75;;
76310;SDS011;65120;59.304;18.294;2022-11-27T00:55:24;4.03;;;2.10;;
76310;SDS011;65120;59.304;18.294;2022-11-27T00:57:51;2.42;;;1.42;;
76310;SDS011;65120;59.304;18.294;2022-11-27T01:00:18;2.53;;;1.80;;
76310;SDS011;65120;59.304;18.294;2022-11-27T01:02:45;3.42;;;2.00;;
76310;SDS011;65120;59.304;18.294;2022-11-27T01:05:11;3.78;;;1.80;;
76310;SDS011;65120;59.304;18.294;2022-11-27T01:07:38;2.80;;;1.55;;
76310;SDS011;65120;59.304;18.294;2022-11-27T01:10:05;3.50;;;1.40;;
76310;SDS011;65120;59.304;18.294;2022-11-27T01:12:34;1.90;;;1.70;;
76310;SDS011;65120;59.304;18.294;2022-11-27T01:15:01;1.95;;;1.52;;
76310;SDS011;65120;59.304;18.294;2022-11-27T01:17:29;2.90;;;1.60;;
76310;SDS011;65120;59.304;18.294;2022-11-27T01:19:56;2.08;;;1.80;;
76310;SDS011;65120;59.304;18.294;2022-11-27T01:22:22;2.30;;;1.08;;
76310;SDS011;65120;59.304;18.294;2022-11-27T01:24:49;2.97;;;1.60;;
76310;SDS011;65120;59.304;18.294;2022-11-27T01:27:16;1.75;;;1.13;;
76310;SDS011;65120;59.304;18.294;2022-11-27T01:29:45;2.15;;;1.40;;
76310;SDS011;65120;59.304;18.294;2022-11-27T01:32:11;3.85;;;1.80;;
76310;SDS011;65120;59.304;18.294;2022-11-27T01:34:39;2.95;;;1.52;;
76310;SDS011;65120;59.304;18.294;2022-11-27T01:37:05;3.60;;;1.55;;
76310;SDS011;65120;59.304;18.294;2022-11-27T01:39:32;2.10;;;1.38;;
76310;SDS011;65120;59.304;18.294;2022-11-27T01:41:59;2.05;;;1.42;;
76310;SDS011;65120;59.304;18.294;2022-11-27T01:44:45;4.53;;;2.30;;
76310;SDS011;65120;59.304;18.294;2022-11-27T01:47:16;2.40;;;1.13;;
76310;SDS011;65120;59.304;18.294;2022-11-27T01:49:49;3.13;;;1.90;;
76310;SDS011;65120;59.304;18.294;2022-11-27T01:52:19;3.05;;;1.45;;
76310;SDS011;65120;59.304;18.294;2022-11-27T01:54:49;3.55;;;1.40;;
76310;SDS011;65120;59.304;18.294;2022-11-27T01:57:21;3.50;;;1.63;;
76310;SDS011;65120;59.304;18.294;2022-11-27T01:59:52;6.32;;;1.50;;
76310;SDS011;65120;59.304;18.294;2022-11-27T02:02:22;1.98;;;1.42;;
76310;SDS011;65120;59.304;18.294;2022-11-27T02:04:49;2.33;;;1.85;;
76310;SDS011;65120;59.304;18.294;2022-11-27T02:07:15;2.97;;;1.40;;
76310;SDS011;65120;59.304;18.294;2022-11-27T02:09:42;3.38;;;1.67;;
76310;SDS011;65120;59.304;18.294;2022-11-27T02:12:10;3.92;;;1.20;;
76310;SDS011;65120;59.304;18.294;2022-11-27T02:14:43;3.88;;;1.90;;
76310;SDS011;65120;59.304;18.294;2022-11-27T02:17:18;2.45;;;1.40;;
76310;SDS011;65120;59.304;18.294;2022-11-27T02:19:54;2.13;;;1.20;;
76310;SDS011;65120;59.304;18.294;2022-11-27T02:22:38;2.65;;;1.17;;
76310;SDS011;65120;59.304;18.294;2022-11-27T02:25:19;2.05;;;1.48;;
76310;SDS011;65120;59.304;18.294;2022-11-27T02:27:59;2.47;;;1.38;;
76310;SDS011;65120;59.304;18.294;2022-11-27T02:30:40;2.28;;;1.05;;
76310;SDS011;65120;59.304;18.294;2022-11-27T02:33:11;2.45;;;1.40;;
76310;SDS011;65120;59.304;18.294;2022-11-27T02:35:47;2.17;;;1.30;;
76310;SDS011;65120;59.304;18.294;2022-11-27T02:38:17;2.63;;;1.02;;
76310;SDS011;65120;59.304;18.294;2022-11-27T02:40:48;3.55;;;2.10;;
76310;SDS011;65120;59.304;18.294;2022-11-27T02:43:19;4.10;;;1.45;;
76310;SDS011;65120;59.304;18.294;2022-11-27T02:45:52;3.28;;;1.77;;
76310;SDS011;65120;59.304;18.294;2022-11-27T02:48:20;2.33;;;1.23;;
76310;SDS011;65120;59.304;18.294;2022-11-27T02:50:49;2.50;;;1.40;;
76310;SDS011;65120;59.304;18.294;2022-11-27T02:53:20;2.38;;;1.88;;
76310;SDS011;65120;59.304;18.294;2022-11-27T02:55:51;3.38;;;1.25;;
76310;SDS011;65120;59.304;18.294;2022-11-27T02:58:20;1.95;;;1.27;;
76310;SDS011;65120;59.304;18.294;2022-11-27T03:00:51;2.90;;;1.38;;
76310;SDS011;65120;59.304;18.294;2022-11-27T03:03:20;2.30;;;1.10;;
76310;SDS011;65120;59.304;18.294;2022-11-27T03:05:52;2.50;;;1.90;;
76310;SDS011;65120;59.304;18.294;2022-11-27T03:08:27;2.08;;;1.17;;
76310;SDS011;65120;59.304;18.294;2022-11-27T03:10:59;4.18;;;1.63;;
76310;SDS011;65120;59.304;18.294;2022-11-27T03:13:29;2.55;;;1.15;;
76310;SDS011;65120;59.304;18.294;2022-11-27T03:16:04;2.17;;;1.10;;
76310;SDS011;65120;59.304;18.294;2022-11-27T03:18:38;0.98;;;0.88;;
76310;SDS011;65120;59.304;18.294;2022-11-27T03:21:11;2.20;;;1.00;;
76310;SDS011;65120;59.304;18.294;2022-11-27T03:23:46;2.30;;;1.20;;
76310;SDS011;65120;59.304;18.294;2022-11-27T03:26:13;2.72;;;1.38;;
76310;SDS011;65120;59.304;18.294;2022-11-27T03:28:40;3.97;;;1.70;;
76310;SDS011;65120;59.304;18.294;2022-11-27T03:31:11;1.70;;;1.17;;
76310;SDS011;65120;59.304;18.294;2022-11-27T03:33:38;4.70;;;1.60;;
76310;SDS011;65120;59.304;18.294;2022-11-27T03:36:13;3.30;;;1.52;;
76310;SDS011;65120;59.304;18.294;2022-11-27T03:38:41;2.58;;;1.50;;
76310;SDS011;65120;59.304;18.294;2022-11-27T03:41:11;2.85;;;1.60;;
76310;SDS011;65120;59.304;18.294;2022-11-27T03:43:49;3.20;;;1.95;;
76310;SDS011;65120;59.304;18.294;2022-11-27T03:46:28;1.98;;;1.25;;
76310;SDS011;65120;59.304;18.294;2022-11-27T03:49:05;2.05;;;1.42;;
76310;SDS011;65120;59.304;18.294;2022-11-27T03:51:40;1.70;;;1.23;;
76310;SDS011;65120;59.304;18.294;2022-11-27T03:54:11;2.13;;;1.38;;
76310;SDS011;65120;59.304;18.294;2022-11-27T03:56:50;1.95;;;1.05;;
76310;SDS011;65120;59.304;18.294;2022-11-27T03:59:24;2.42;;;1.15;;
76310;SDS011;65120;59.304;18.294;2022-11-27T04:01:56;1.77;;;1.35;;
76310;SDS011;65120;59.304;18.294;2022-11-27T04:04:23;1.30;;;0.93;;
76310;SDS011;65120;59.304;18.294;2022-11-27T04:06:50;1.92;;;1.00;;
76310;SDS011;65120;59.304;18.294;2022-11-27T04:09:16;2.90;;;1.10;;
76310;SDS011;65120;59.304;18.294;2022-11-27T04:11:43;4.00;;;1.00;;
76310;SDS011;65120;59.304;18.294;2022-11-27T04:14:10;2.13;;;1.45;;
76310;SDS011;65120;59.304;18.294;2022-11-27T04:16:37;1.60;;;0.95;;
76310;SDS011;65120;59.304;18.294;2022-11-27T04:19:05;3.97;;;1.58;;
76310;SDS011;65120;59.304;18.294;2022-11-27T04:21:32;2.35;;;0.82;;
76310;SDS011;65120;59.304;18.294;2022-11-27T04:23:58;2.10;;;0.93;;
76310;SDS011;65120;59.304;18.294;2022-11-27T04:26:25;1.58;;;1.08;;
76310;SDS011;65120;59.304;18.294;2022-11-27T04:28:52;1.65;;;1.15;;
76310;SDS011;65120;59.304;18.294;2022-11-27T04:31:19;1.90;;;0.95;;
76310;SDS011;65120;59.304;18.294;2022-11-27T04:33:45;1.95;;;0.90;;
76310;SDS011;65120;59.304;18.294;2022-11-27T04:36:13;3.03;;;1.05;;
76310;SDS011;65120;59.304;18.294;2022-11-27T04:38:40;2.08;;;1.10;;
76310;SDS011;65120;59.304;18.294;2022-11-27T04:41:07;2.25;;;1.02;;
76310;SDS011;65120;59.304;18.294;2022-11-27T04:43:34;1.98;;;1.10;;
76310;SDS011;65120;59.304;18.294;2022-11-27T04:46:00;3.33;;;1.25;;
76310;SDS011;65120;59.304;18.294;2022-11-27T04:48:27;3.15;;;0.80;;
76310;SDS011;65120;59.304;18.294;2022-11-27T04:50:54;2.00;;;1.13;;
76310;SDS011;65120;59.304;18.294;2022-11-27T04:53:22;2.10;;;1.42;;
76310;SDS011;65120;59.304;18.294;2022-11-27T04:55:49;3.05;;;0.95;;
76310;SDS011;65120;59.304;18.294;2022-11-27T04:58:16;1.80;;;1.10;;
76310;SDS011;65120;59.304;18.294;2022-11-27T05:00:43;2.60;;;1.23;;
76310;SDS011;65120;59.304;18.294;2022-11-27T05:03:09;1.48;;;1.00;;
76310;SDS011;65120;59.304;18.294;2022-11-27T05:05:36;2.78;;;1.40;;
76310;SDS011;65120;59.304;18.294;2022-11-27T05:08:03;2.25;;;1.10;;
76310;SDS011;65120;59.304;18.294;2022-11-27T05:10:31;1.10;;;0.85;;
76310;SDS011;65120;59.304;18.294;2022-11-27T05:12:58;1.70;;;1.20;;
76310;SDS011;65120;59.304;18.294;2022-11-27T05:15:25;2.30;;;1.05;;
76310;SDS011;65120;59.304;18.294;2022-11-27T05:17:52;1.65;;;1.38;;
76310;SDS011;65120;59.304;18.294;2022-11-27T05:20:18;3.08;;;0.95;;
76310;SDS011;65120;59.304;18.294;2022-11-27T05:22:45;2.55;;;1.23;;
76310;SDS011;65120;59.304;18.294;2022-11-27T05:25:13;2.03;;;1.00;;
76310;SDS011;65120;59.304;18.294;2022-11-27T05:27:41;1.90;;;1.10;;
76310;SDS011;65120;59.304;18.294;2022-11-27T05:30:08;2.33;;;1.10;;
76310;SDS011;65120;59.304;18.294;2022-11-27T05:32:35;3.35;;;1.67;;
76310;SDS011;65120;59.304;18.294;2022-11-27T05:35:03;2.22;;;1.45;;
76310;SDS011;65120;59.304;18.294;2022-11-27T05:37:30;3.03;;;1.50;;
76310;SDS011;65120;59.304;18.294;2022-11-27T05:39:56;3.30;;;1.20;;
76310;SDS011;65120;59.304;18.294;2022-11-27T05:42:23;1.50;;;1.08;;
76310;SDS011;65120;59.304;18.294;2022-11-27T05:44:51;1.52;;;1.00;;
76310;SDS011;65120;59.304;18.294;2022-11-27T05:47:18;1.40;;;1.10;;
76310;SDS011;65120;59.304;18.294;2022-11-27T05:49:45;1.48;;;1.10;;
76310;SDS011;65120;59.304;18.294;2022-11-27T05:52:11;1.60;;;0.95;;
76310;SDS011;65120;59.304;18.294;2022-11-27T05:54:38;1.60;;;0.93;;
76310;SDS011;65120;59.304;18.294;2022-11-27T05:57:05;3.47;;;1.10;;
76310;SDS011;65120;59.304;18.294;2022-11-27T05:59:32;2.17;;;1.35;;
76310;SDS011;65120;59.304;18.294;2022-11-27T06:02:00;1.95;;;1.20;;
76310;SDS011;65120;59.304;18.294;2022-11-27T06:04:26;4.00;;;1.80;;
76310;SDS011;65120;59.304;18.294;2022-11-27T06:06:53;3.33;;;1.55;;
76310;SDS011;65120;59.304;18.294;2022-11-27T06:09:20;2.85;;;1.10;;
76310;SDS011;65120;59.304;18.294;2022-11-27T06:11:46;1.90;;;1.20;;
76310;SDS011;65120;59.304;18.294;2022-11-27T06:14:13;1.55;;;1.00;;
76310;SDS011;65120;59.304;18.294;2022-11-27T06:16:40;3.47;;;1.10;;
76310;SDS011;65120;59.304;18.294;2022-11-27T06:19:08;1.83;;;1.15;;
76310;SDS011;65120;59.304;18.294;2022-11-27T06:21:35;1.90;;;0.85;;
76310;SDS011;65120;59.304;18.294;2022-11-27T06:24:02;2.17;;;1.20;;
76310;SDS011;65120;59.304;18.294;2022-11-27T06:26:30;1.48;;;0.90;;
76310;SDS011;65120;59.304;18.294;2022-11-27T06:28:58;2.28;;;1.30;;
76310;SDS011;65120;59.304;18.294;2022-11-27T06:31:26;5.05;;;1.15;;
76310;SDS011;65120;59.304;18.294;2022-11-27T06:33:54;2.95;;;1.20;;
76310;SDS011;65120;59.304;18.294;2022-11-27T06:36:25;2.47;;;1.58;;
76310;SDS011;65120;59.304;18.294;2022-11-27T06:38:54;1.73;;;1.30;;
76310;SDS011;65120;59.304;18.294;2022-11-27T06:41:21;2.50;;;1.30;;
76310;SDS011;65120;59.304;18.294;2022-11-27T06:43:50;2.67;;;1.23;;
76310;SDS011;65120;59.304;18.294;2022-11-27T06:46:17;1.83;;;1.27;;
76310;SDS011;65120;59.304;18.294;2022-11-27T06:48:46;4.40;;;1.10;;
76310;SDS011;65120;59.304;18.294;2022-11-27T06:51:14;2.47;;;1.70;;
76310;SDS011;65120;59.304;18.294;2022-11-27T06:53:44;2.60;;;1.38;;
76310;SDS011;65120;59.304;18.294;2022-11-27T06:56:12;1.92;;;1.27;;
76310;SDS011;65120;59.304;18.294;2022-11-27T06:58:40;2.10;;;1.17;;
76310;SDS011;65120;59.304;18.294;2022-11-27T07:01:09;1.20;;;1.08;;
76310;SDS011;65120;59.304;18.294;2022-11-27T07:03:38;2.65;;;1.60;;
76310;SDS011;65120;59.304;18.294;2022-11-27T07:06:06;3.42;;;1.48;;
76310;SDS011;65120;59.304;18.294;2022-11-27T07:08:34;2.38;;;1.38;;
76310;SDS011;65120;59.304;18.294;2022-11-27T07:11:03;1.75;;;1.33;;
76310;SDS011;65120;59.304;18.294;2022-11-27T07:13:31;2.20;;;1.10;;
76310;SDS011;65120;59.304;18.294;2022-11-27T07:15:58;4.78;;;1.40;;
76310;SDS011;65120;59.304;18.294;2022-11-27T07:18:26;3.53;;;1.83;;
76310;SDS011;65120;59.304;18.294;2022-11-27T07:20:53;3.00;;;1.70;;
76310;SDS011;65120;59.304;18.294;2022-11-27T07:23:20;5.03;;;1.70;;
76310;SDS011;65120;59.304;18.294;2022-11-27T07:25:47;2.03;;;1.17;;
76310;SDS011;65120;59.304;18.294;2022-11-27T07:28:15;2.40;;;1.45;;
76310;SDS011;65120;59.304;18.294;2022-11-27T07:30:42;3.30;;;2.10;;
76310;SDS011;65120;59.304;18.294;2022-11-27T07:33:08;2.10;;;1.55;;
76310;SDS011;65120;59.304;18.294;2022-11-27T07:35:35;2.58;;;2.20;;
76310;SDS011;65120;59.304;18.294;2022-11-27T07:38:02;2.38;;;1.92;;
76310;SDS011;65120;59.304;18.294;2022-11-27T07:40:28;4.55;;;2.88;;
76310;SDS011;65120;59.304;18.294;2022-11-27T07:42:57;4.53;;;2.00;;
76310;SDS011;65120;59.304;18.294;2022-11-27T07:45:25;3.65;;;2.28;;
76310;SDS011;65120;59.304;18.294;2022-11-27T07:47:52;3.65;;;2.30;;
76310;SDS011;65120;59.304;18.294;2022-11-27T07:50:18;4.70;;;2.38;;
76310;SDS011;65120;59.304;18.294;2022-11-27T07:52:45;3.28;;;2.30;;
76310;SDS011;65120;59.304;18.294;2022-11-27T07:55:12;4.25;;;1.85;;
76310;SDS011;65120;59.304;18.294;2022-11-27T07:57:39;3.38;;;1.92;;
76310;SDS011;65120;59.304;18.294;2022-11-27T08:00:06;4.80;;;2.58;;
76310;SDS011;65120;59.304;18.294;2022-11-27T08:02:36;5.63;;;2.03;;
76310;SDS011;65120;59.304;18.294;2022-11-27T08:05:03;5.82;;;2.13;;
76310;SDS011;65120;59.304;18.294;2022-11-27T08:07:30;4.80;;;2.22;;
76310;SDS011;65120;59.304;18.294;2022-11-27T08:09:56;2.80;;;1.75;;
76310;SDS011;65120;59.304;18.294;2022-11-27T08:12:23;3.70;;;2.33;;
76310;SDS011;65120;59.304;18.294;2022-11-27T08:14:50;3.63;;;2.22;;
76310;SDS011;65120;59.304;18.294;2022-11-27T08:17:17;5.22;;;2.03;;
76310;SDS011;65120;59.304;18.294;2022-11-27T08:19:45;5.07;;;2.50;;
76310;SDS011;65120;59.304;18.294;2022-11-27T08:22:12;4.20;;;2.25;;
76310;SDS011;65120;59.304;18.294;2022-11-27T08:24:40;3.72;;;2.55;;
76310;SDS011;65120;59.304;18.294;2022-11-27T08:27:07;3.05;;;1.85;;
76310;SDS011;65120;59.304;18.294;2022-11-27T08:29:34;6.15;;;2.25;;
76310;SDS011;65120;59.304;18.294;2022-11-27T08:32:01;3.97;;;2.72;;
76310;SDS011;65120;59.304;18.294;2022-11-27T08:34:28;3.92;;;2.15;;
76310;SDS011;65120;59.304;18.294;2022-11-27T08:36:56;4.10;;;2.90;;
76310;SDS011;65120;59.304;18.294;2022-11-27T08:39:23;6.00;;;3.03;;
76310;SDS011;65120;59.304;18.294;2022-11-27T08:41:51;6.80;;;2.75;;
76310;SDS011;65120;59.304;18.294;2022-11-27T08:44:17;7.63;;;3.42;;
76310;SDS011;65120;59.304;18.294;2022-11-27T08:46:44;5.10;;;3.60;;
76310;SDS011;65120;59.304;18.294;2022-11-27T08:49:11;4.70;;;3.35;;
76310;SDS011;65120;59.304;18.294;2022-11-27T08:51:38;6.25;;;3.22;;
76310;SDS011;65120;59.304;18.294;2022-11-27T08:54:06;6.05;;;3.45;;
76310;SDS011;65120;59.304;18.294;2022-11-27T08:56:33;5.45;;;3.55;;
76310;SDS011;65120;59.304;18.294;2022-11-27T08:59:00;5.55;;;3.08;;
76310;SDS011;65120;59.304;18.294;2022-11-27T09:01:27;5.60;;;3.67;;
76310;SDS011;65120;59.304;18.294;2022-11-27T09:03:55;7.50;;;3.42;;
76310;SDS011;65120;59.304;18.294;2022-11-27T09:06:23;6.07;;;3.28;;
76310;SDS011;65120;59.304;18.294;2022-11-27T09:08:54;6.28;;;3.83;;
76310;SDS011;65120;59.304;18.294;2022-11-27T09:11:23;5.05;;;3.22;;
76310;SDS011;65120;59.304;18.294;2022-11-27T09:13:50;6.95;;;3.28;;
76310;SDS011;65120;59.304;18.294;2022-11-27T09:16:18;9.98;;;4.07;;
76310;SDS011;65120;59.304;18.294;2022-11-27T09:18:46;3.75;;;2.83;;
76310;SDS011;65120;59.304;18.294;2022-11-27T09:21:15;5.85;;;2.72;;
76310;SDS011;65120;59.304;18.294;2022-11-27T09:23:42;6.40;;;3.72;;
76310;SDS011;65120;59.304;18.294;2022-11-27T09:26:10;7.28;;;2.95;;
76310;SDS011;65120;59.304;18.294;2022-11-27T09:28:41;6.10;;;3.58;;
76310;SDS011;65120;59.304;18.294;2022-11-27T09:31:09;7.85;;;3.53;;
76310;SDS011;65120;59.304;18.294;2022-11-27T09:33:38;7.25;;;3.58;;
76310;SDS011;65120;59.304;18.294;2022-11-27T09:36:07;12.90;;;5.68;;
76310;SDS011;65120;59.304;18.294;2022-11-27T09:38:35;13.27;;;4.75;;
76310;SDS011;65120;59.304;18.294;2022-11-27T09:41:05;7.25;;;3.75;;
76310;SDS011;65120;59.304;18.294;2022-11-27T09:43:41;6.43;;;3.78;;
76310;SDS011;65120;59.304;18.294;2022-11-27T09:48:49;12.77;;;6.90;;
76310;SDS011;65120;59.304;18.294;2022-11-27T09:51:19;9.50;;;5.85;;
76310;SDS011;65120;59.304;18.294;2022-11-27T09:53:54;12.75;;;5.72;;
76310;SDS011;65120;59.304;18.294;2022-11-27T09:56:25;9.88;;;5.53;;
76310;SDS011;65120;59.304;18.294;2022-11-27T09:58:55;11.43;;;5.57;;
76310;SDS011;65120;59.304;18.294;2022-11-27T10:01:23;7.60;;;4.47;;
76310;SDS011;65120;59.304;18.294;2022-11-27T10:03:54;6.82;;;4.18;;
76310;SDS011;65120;59.304;18.294;2022-11-27T10:06:22;11.73;;;6.53;;
76310;SDS011;65120;59.304;18.294;2022-11-27T10:09:02;6.68;;;4.45;;
76310;SDS011;65120;59.304;18.294;2022-11-27T10:11:43;5.88;;;3.70;;
76310;SDS011;65120;59.304;18.294;2022-11-27T10:14:29;9.90;;;4.15;;
76310;SDS011;65120;59.304;18.294;2022-11-27T10:17:05;9.07;;;4.68;;
76310;SDS011;65120;59.304;18.294;2022-11-27T10:19:38;11.52;;;5.55;;
76310;SDS011;65120;59.304;18.294;2022-11-27T10:22:11;5.60;;;4.38;;
76310;SDS011;65120;59.304;18.294;2022-11-27T10:24:45;5.88;;;4.07;;
76310;SDS011;65120;59.304;18.294;2022-11-27T10:27:22;6.43;;;4.18;;
76310;SDS011;65120;59.304;18.294;2022-11-27T10:29:57;9.38;;;5.35;;
76310;SDS011;65120;59.304;18.294;2022-11-27T10:32:26;9.52;;;5.53;;
76310;SDS011;65120;59.304;18.294;2022-11-27T10:34:56;5.75;;;3.33;;
76310;SDS011;65120;59.304;18.294;2022-11-27T10:37:27;9.07;;;3.50;;
76310;SDS011;65120;59.304;18.294;2022-11-27T10:39:59;6.53;;;3.55;;
76310;SDS011;65120;59.304;18.294;2022-11-27T10:42:32;9.07;;;3.78;;
76310;SDS011;65120;59.304;18.294;2022-11-27T10:45:03;7.25;;;3.53;;
76310;SDS011;65120;59.304;18.294;2022-11-27T10:47:32;5.70;;;3.45;;
76310;SDS011;65120;59.304;18.294;2022-11-27T10:50:00;6.03;;;3.25;;
76310;SDS011;65120;59.304;18.294;2022-11-27T10:52:27;8.73;;;3.45;;
76310;SDS011;65120;59.304;18.294;2022-11-27T10:54:55;5.30;;;4.00;;
76310;SDS011;65120;59.304;18.294;2022-11-27T11:00:24;5.93;;;4.05;;
76310;SDS011;65120;59.304;18.294;2022-11-27T11:02:58;8.65;;;3.83;;
76310;SDS011;65120;59.304;18.294;2022-11-27T11:05:25;5.97;;;3.47;;
76310;SDS011;65120;59.304;18.294;2022-11-27T11:07:57;4.68;;;3.05;;
76310;SDS011;65120;59.304;18.294;2022-11-27T11:10:27;5.43;;;3.13;;
76310;SDS011;65120;59.304;18.294;2022-11-27T11:13:03;6.28;;;3.33;;
76310;SDS011;65120;59.304;18.294;2022-11-27T11:15:33;5.53;;;3.03;;
76310;SDS011;65120;59.304;18.294;2022-11-27T11:17:59;7.43;;;3.17;;
76310;SDS011;65120;59.304;18.294;2022-11-27T11:20:26;8.00;;;3.83;;
76310;SDS011;65120;59.304;18.294;2022-11-27T11:22:53;6.45;;;4.43;;
76310;SDS011;65120;59.304;18.294;2022-11-27T11:25:20;5.15;;;3.25;;
76310;SDS011;65120;59.304;18.294;2022-11-27T11:27:47;7.25;;;3.42;;
76310;SDS011;65120;59.304;18.294;2022-11-27T11:30:19;6.05;;;3.83;;
76310;SDS011;65120;59.304;18.294;2022-11-27T11:32:49;5.90;;;3.55;;
76310;SDS011;65120;59.304;18.294;2022-11-27T11:35:23;5.85;;;3.42;;
76310;SDS011;65120;59.304;18.294;2022-11-27T11:37:53;4.97;;;2.80;;
76310;SDS011;65120;59.304;18.294;2022-11-27T11:40:22;6.88;;;3.55;;
76310;SDS011;65120;59.304;18.294;2022-11-27T11:42:54;7.10;;;3.67;;
76310;SDS011;65120;59.304;18.294;2022-11-27T11:45:23;7.60;;;4.65;;
76310;SDS011;65120;59.304;18.294;2022-11-27T11:47:53;6.65;;;3.47;;
76310;SDS011;65120;59.304;18.294;2022-11-27T11:50:26;15.15;;;6.20;;
76310;SDS011;65120;59.304;18.294;2022-11-27T11:52:56;15.23;;;6.78;;
76310;SDS011;65120;59.304;18.294;2022-11-27T11:55:30;10.82;;;4.60;;
76310;SDS011;65120;59.304;18.294;2022-11-27T12:01:06;9.68;;;5.88;;
76310;SDS011;65120;59.304;18.294;2022-11-27T12:03:57;12.43;;;7.60;;
76310;SDS011;65120;59.304;18.294;2022-11-27T12:06:36;10.13;;;6.35;;
76310;SDS011;65120;59.304;18.294;2022-11-27T12:09:21;6.22;;;4.10;;
76310;SDS011;65120;59.304;18.294;2022-11-27T12:11:56;4.45;;;3.45;;
76310;SDS011;65120;59.304;18.294;2022-11-27T12:14:34;7.60;;;3.25;;
76310;SDS011;65120;59.304;18.294;2022-11-27T12:17:12;4.50;;;2.97;;
76310;SDS011;65120;59.304;18.294;2022-11-27T12:25:56;4.38;;;2.72;;
76310;SDS011;65120;59.304;18.294;2022-11-27T12:31:40;8.63;;;5.50;;
76310;SDS011;65120;59.304;18.294;2022-11-27T12:34:27;7.15;;;5.28;;
76310;SDS011;65120;59.304;18.294;2022-11-27T12:37:08;6.32;;;4.57;;
76310;SDS011;65120;59.304;18.294;2022-11-27T12:39:50;4.25;;;3.45;;
76310;SDS011;65120;59.304;18.294;2022-11-27T12:42:26;4.22;;;3.63;;
76310;SDS011;65120;59.304;18.294;2022-11-27T12:45:00;3.97;;;3.08;;
76310;SDS011;65120;59.304;18.294;2022-11-27T12:47:32;4.78;;;3.15;;
76310;SDS011;65120;59.304;18.294;2022-11-27T12:50:07;4.82;;;3.78;;
76310;SDS011;65120;59.304;18.294;2022-11-27T12:52:42;6.85;;;4.28;;
76310;SDS011;65120;59.304;18.294;2022-11-27T12:55:12;7.13;;;4.57;;
76310;SDS011;65120;59.304;18.294;2022-11-27T12:57:43;6.68;;;3.33;;
76310;SDS011;65120;59.304;18.294;2022-11-27T13:00:14;4.13;;;3.50;;
76310;SDS011;65120;59.304;18.294;2022-11-27T13:02:43;7.18;;;4.10;;
76310;SDS011;65120;59.304;18.294;2022-11-27T13:05:20;7.15;;;3.13;;
76310;SDS011;65120;59.304;18.294;2022-11-27T13:07:54;3.95;;;2.63;;
76310;SDS011;65120;59.304;18.294;2022-11-27T13:10:26;6.90;;;2.75;;
76310;SDS011;65120;59.304;18.294;2022-11-27T13:13:00;4.10;;;2.90;;
76310;SDS011;65120;59.304;18.294;2022-11-27T13:15:32;4.82;;;2.78;;
76310;SDS011;65120;59.304;18.294;2022-11-27T13:18:05;3.38;;;2.33;;
76310;SDS011;65120;59.304;18.294;2022-11-27T13:20:39;5.55;;;3.50;;
76310;SDS011;65120;59.304;18.294;2022-11-27T13:23:08;5.47;;;2.92;;
76310;SDS011;65120;59.304;18.294;2022-11-27T13:25:38;6.22;;;3.30;;
76310;SDS011;65120;59.304;18.294;2022-11-27T13:28:14;5.97;;;3.28;;
76310;SDS011;65120;59.304;18.294;2022-11-27T13:30:48;5.22;;;3.75;;
76310;SDS011;65120;59.304;18.294;2022-11-27T13:33:19;5.00;;;3.17;;
76310;SDS011;65120;59.304;18.294;2022-11-27T13:35:58;4.45;;;2.92;;
76310;SDS011;65120;59.304;18.294;2022-11-27T13:38:28;4.00;;;2.75;;
76310;SDS011;65120;59.304;18.294;2022-11-27T13:40:57;6.38;;;3.10;;
76310;SDS011;65120;59.304;18.294;2022-11-27T13:43:32;4.07;;;2.90;;
76310;SDS011;65120;59.304;18.294;2022-11-27T13:46:07;6.20;;;3.42;;
76310;SDS011;65120;59.304;18.294;2022-11-27T13:48:37;5.60;;;3.30;;
76310;SDS011;65120;59.304;18.294;2022-11-27T13:51:08;5.82;;;3.38;;
76310;SDS011;65120;59.304;18.294;2022-11-27T13:53:38;6.32;;;2.75;;
76310;SDS011;65120;59.304;18.294;2022-11-27T13:56:07;3.08;;;2.13;;
76310;SDS011;65120;59.304;18.294;2022-11-27T13:58:35;5.82;;;2.90;;
76310;SDS011;65120;59.304;18.294;2022-11-27T14:01:13;4.00;;;2.53;;
76310;SDS011;65120;59.304;18.294;2022-11-27T14:03:42;7.47;;;2.40;;
76310;SDS011;65120;59.304;18.294;2022-11-27T14:06:20;5.03;;;3.05;;
76310;SDS011;65120;59.304;18.294;2022-11-27T14:08:56;3.35;;;2.00;;
76310;SDS011;65120;59.304;18.294;2022-11-27T14:11:35;4.38;;;3.15;;
76310;SDS011;65120;59.304;18.294;2022-11-27T14:14:12;5.05;;;3.08;;
76310;SDS011;65120;59.304;18.294;2022-11-27T14:16:49;4.88;;;2.95;;
76310;SDS011;65120;59.304;18.294;2022-11-27T14:19:22;4.95;;;2.90;;
76310;SDS011;65120;59.304;18.294;2022-11-27T14:21:52;5.00;;;2.58;;
76310;SDS011;65120;59.304;18.294;2022-11-27T14:24:33;5.07;;;3.00;;
76310;SDS011;65120;59.304;18.294;2022-11-27T14:27:13;5.88;;;3.15;;
76310;SDS011;65120;59.304;18.294;2022-11-27T14:29:43;4.72;;;2.88;;
76310;SDS011;65120;59.304;18.294;2022-11-27T14:32:10;5.30;;;3.10;;
76310;SDS011;65120;59.304;18.294;2022-11-27T14:34:39;5.53;;;3.95;;
76310;SDS011;65120;59.304;18.294;2022-11-27T14:37:16;4.35;;;3.45;;
76310;SDS011;65120;59.304;18.294;2022-11-27T14:39:47;8.95;;;5.05;;
76310;SDS011;65120;59.304;18.294;2022-11-27T14:42:21;9.75;;;5.97;;
76310;SDS011;65120;59.304;18.294;2022-11-27T14:44:58;10.20;;;5.63;;
76310;SDS011;65120;59.304;18.294;2022-11-27T14:47:26;9.38;;;4.95;;
76310;SDS011;65120;59.304;18.294;2022-11-27T14:49:54;6.20;;;4.38;;
76310;SDS011;65120;59.304;18.294;2022-11-27T14:52:21;5.00;;;3.70;;
76310;SDS011;65120;59.304;18.294;2022-11-27T14:54:50;6.35;;;3.25;;
76310;SDS011;65120;59.304;18.294;2022-11-27T14:57:20;5.72;;;3.25;;
76310;SDS011;65120;59.304;18.294;2022-11-27T14:59:58;4.53;;;3.15;;
76310;SDS011;65120;59.304;18.294;2022-11-27T15:02:28;3.83;;;2.88;;
76310;SDS011;65120;59.304;18.294;2022-11-27T15:05:00;4.40;;;3.35;;
76310;SDS011;65120;59.304;18.294;2022-11-27T15:07:28;5.20;;;3.80;;